Wetterdaten: Woche 09.11.09 - 15.11.09 (KW46)
Datum Zeit Temp. Innen Temp. Aussen UV X Diff Temp. Feuchte Inne Feuchte Auss Sonnenschein Luftdruck Regen ab 0,1 Wind Sonnenschein Windben
09.11.2009 00:00 15,8 C 7,2 C 0,0 UV-I 0,0 C 56 % 92 % 0 % 1010,8 hPa 0,0 l/m 4,9 km/h (1 Bft) 0,00 h 7,3 km/h (2 Bft)
09.11.2009 01:00 15,9 C 7,3 C 0,0 UV-I 0,0 C 56 % 91 % 0 % 1010,9 hPa 0,0 l/m 4,6 km/h (1 Bft) 0,00 h 6,8 km/h (2 Bft)
09.11.2009 02:00 15,9 C 7,2 C 0,0 UV-I 0,0 C 56 % 91 % 0 % 1011,2 hPa 0,0 l/m 4,2 km/h (1 Bft) 0,00 h 6,1 km/h (2 Bft)
09.11.2009 03:00 15,8 C 7,1 C 0,0 UV-I 0,0 C 56 % 92 % 0 % 1011,2 hPa 0,0 l/m 3,3 km/h (1 Bft) 0,00 h 5,5 km/h (1 Bft)
09.11.2009 04:00 15,8 C 7,1 C 0,0 UV-I 0,0 C 56 % 91 % 0 % 1011,1 hPa 0,0 l/m 4,0 km/h (1 Bft) 0,00 h 6,4 km/h (2 Bft)
09.11.2009 05:00 15,6 C 7,2 C 0,0 UV-I 0,0 C 56 % 92 % 0 % 1011,0 hPa 0,0 l/m 4,7 km/h (1 Bft) 0,00 h 7,3 km/h (2 Bft)
09.11.2009 06:00 15,7 C 7,1 C 0,0 UV-I 0,0 C 55 % 90 % 0 % 1011,2 hPa 0,0 l/m 5,2 km/h (1 Bft) 0,00 h 7,3 km/h (2 Bft)
09.11.2009 07:00 15,6 C 7,1 C 0,0 UV-I 0,0 C 55 % 90 % 0 % 1011,1 hPa 0,0 l/m 5,0 km/h (1 Bft) 0,00 h 7,5 km/h (2 Bft)
09.11.2009 08:00 15,5 C 7,0 C 0,0 UV-I 0,0 C 55 % 89 % 0 % 1011,6 hPa 0,0 l/m 4,5 km/h (1 Bft) 0,00 h 5,7 km/h (1 Bft)
09.11.2009 09:00 15,7 C 6,9 C 0,0 UV-I 0,0 C 55 % 89 % 0 % 1012,0 hPa 0,0 l/m 3,3 km/h (1 Bft) 0,00 h 5,7 km/h (1 Bft)
09.11.2009 10:00 15,8 C 6,8 C 0,1 UV-I 0,0 C 55 % 90 % 0 % 1012,2 hPa 0,0 l/m 4,8 km/h (1 Bft) 0,00 h 7,3 km/h (2 Bft)
09.11.2009 11:00 15,9 C 6,8 C 0,3 UV-I 0,0 C 55 % 89 % 0 % 1012,6 hPa 0,0 l/m 4,9 km/h (1 Bft) 0,00 h 7,4 km/h (2 Bft)
09.11.2009 12:00 15,9 C 6,9 C 0,2 UV-I 0,0 C 54 % 89 % 0 % 1012,4 hPa 0,0 l/m 3,9 km/h (1 Bft) 0,00 h 5,6 km/h (1 Bft)
09.11.2009 13:00 15,9 C 7,0 C 0,2 UV-I 0,0 C 54 % 89 % 0 % 1012,3 hPa 0,0 l/m 3,4 km/h (1 Bft) 0,00 h 5,2 km/h (1 Bft)
09.11.2009 14:00 16,0 C 7,2 C 0,0 UV-I 0,0 C 54 % 89 % 0 % 1012,2 hPa 0,0 l/m 2,3 km/h (1 Bft) 0,00 h 4,5 km/h (1 Bft)
09.11.2009 15:00 15,9 C 7,2 C 0,0 UV-I 0,0 C 55 % 92 % 0 % 1011,9 hPa 0,0 l/m 2,0 km/h (1 Bft) 0,00 h 3,9 km/h (1 Bft)
09.11.2009 16:00 15,7 C 7,2 C 0,0 UV-I 0,0 C 56 % 92 % 0 % 1011,9 hPa 0,0 l/m 2,4 km/h (1 Bft) 0,00 h 4,8 km/h (1 Bft)
09.11.2009 17:00 15,6 C 7,4 C 0,0 UV-I 0,0 C 56 % 91 % 0 % 1011,9 hPa 0,0 l/m 2,3 km/h (1 Bft) 0,00 h 4,4 km/h (1 Bft)
09.11.2009 18:00 15,6 C 7,4 C 0,0 UV-I 0,0 C 56 % 91 % 0 % 1012,1 hPa 0,0 l/m 1,2 km/h (1 Bft) 0,00 h 2,8 km/h (1 Bft)
09.11.2009 19:00 15,5 C 7,3 C 0,0 UV-I 0,0 C 57 % 92 % 0 % 1011,9 hPa 0,0 l/m 3,0 km/h (1 Bft) 0,00 h 6,1 km/h (2 Bft)
09.11.2009 20:00 15,5 C 7,4 C 0,0 UV-I 0,0 C 57 % 91 % 0 % 1011,7 hPa 0,0 l/m 3,0 km/h (1 Bft) 0,00 h 5,5 km/h (1 Bft)
09.11.2009 21:00 15,6 C 7,4 C 0,0 UV-I 0,0 C 57 % 92 % 0 % 1011,8 hPa 0,0 l/m 3,2 km/h (1 Bft) 0,00 h 5,3 km/h (1 Bft)
09.11.2009 22:00 15,6 C 7,3 C 0,0 UV-I 0,0 C 57 % 92 % 0 % 1011,5 hPa 0,0 l/m 2,0 km/h (1 Bft) 0,00 h 4,6 km/h (1 Bft)
09.11.2009 23:00 15,5 C 7,3 C 0,0 UV-I 0,0 C 57 % 92 % 0 % 1011,4 hPa 0,0 l/m 2,4 km/h (1 Bft) 0,00 h 5,6 km/h (1 Bft)
10.11.2009 00:00 15,5 C 7,2 C 0,0 UV-I 0,0 C 57 % 92 % 0 % 1011,5 hPa 0,0 l/m 2,0 km/h (1 Bft) 0,00 h 4,1 km/h (1 Bft)
10.11.2009 01:00 15,4 C 7,1 C 0,0 UV-I 0,0 C 57 % 92 % 0 % 1011,0 hPa 0,0 l/m 1,4 km/h (1 Bft) 0,00 h 2,6 km/h (1 Bft)
10.11.2009 02:00 15,4 C 6,9 C 0,0 UV-I 0,0 C 57 % 92 % 0 % 1010,9 hPa 0,0 l/m 1,2 km/h (1 Bft) 0,00 h 2,6 km/h (1 Bft)
10.11.2009 03:00 15,1 C 6,8 C 0,0 UV-I 0,0 C 56 % 92 % 0 % 1010,7 hPa 0,0 l/m 2,0 km/h (1 Bft) 0,00 h 5,7 km/h (1 Bft)
10.11.2009 04:00 15,0 C 6,8 C 0,0 UV-I 0,0 C 56 % 92 % 0 % 1010,3 hPa 0,0 l/m 2,2 km/h (1 Bft) 0,00 h 4,5 km/h (1 Bft)
10.11.2009 05:00 15,0 C 6,7 C 0,0 UV-I 0,0 C 56 % 92 % 0 % 1010,1 hPa 0,0 l/m 1,8 km/h (1 Bft) 0,00 h 4,3 km/h (1 Bft)
10.11.2009 06:00 14,8 C 6,5 C 0,0 UV-I 0,0 C 56 % 92 % 0 % 1009,9 hPa 0,0 l/m 0,8 km/h (0 Bft) 0,00 h 1,2 km/h (1 Bft)
10.11.2009 07:00 14,8 C 6,4 C 0,0 UV-I 0,0 C 56 % 93 % 0 % 1010,0 hPa 0,0 l/m 0,6 km/h (0 Bft) 0,00 h 2,0 km/h (1 Bft)
10.11.2009 08:00 14,9 C 6,5 C 0,0 UV-I 0,0 C 57 % 93 % 0 % 1010,2 hPa 0,0 l/m 1,4 km/h (1 Bft) 0,00 h 3,6 km/h (1 Bft)
10.11.2009 09:00 15,2 C 6,7 C 0,3 UV-I 0,1 C 56 % 92 % 3 % 1010,3 hPa 0,0 l/m 1,1 km/h (0 Bft) 0,00 h 2,9 km/h (1 Bft)
10.11.2009 10:00 15,2 C 7,1 C 0,5 UV-I 0,1 C 56 % 92 % 3 % 1010,0 hPa 0,0 l/m 1,6 km/h (1 Bft) 0,00 h 3,4 km/h (1 Bft)
10.11.2009 11:00 14,9 C 7,5 C 0,8 UV-I 0,4 C 56 % 90 % 12 % 1009,8 hPa 0,0 l/m 2,0 km/h (1 Bft) 0,00 h 4,5 km/h (1 Bft)
10.11.2009 12:00 14,8 C 8,1 C 1,2 UV-I 0,8 C 56 % 88 % 22 % 1009,2 hPa 0,0 l/m 2,9 km/h (1 Bft) 0,00 h 4,3 km/h (1 Bft)
10.11.2009 13:00 14,8 C 8,5 C 0,5 UV-I 0,2 C 56 % 87 % 6 % 1008,7 hPa 0,0 l/m 2,6 km/h (1 Bft) 0,00 h 4,2 km/h (1 Bft)
10.11.2009 14:00 14,9 C 8,6 C 0,2 UV-I 0,0 C 57 % 88 % 0 % 1008,5 hPa 0,0 l/m 2,8 km/h (1 Bft) 0,00 h 5,1 km/h (1 Bft)
10.11.2009 15:00 14,9 C 8,7 C 0,1 UV-I 0,0 C 58 % 89 % 0 % 1008,2 hPa 0,0 l/m 2,4 km/h (1 Bft) 0,00 h 5,3 km/h (1 Bft)
10.11.2009 16:00 14,7 C 8,6 C 0,0 UV-I 0,0 C 59 % 90 % 0 % 1007,9 hPa 0,0 l/m 1,4 km/h (1 Bft) 0,00 h 2,8 km/h (1 Bft)
10.11.2009 17:00 14,6 C 8,5 C 0,0 UV-I 0,0 C 59 % 90 % 0 % 1007,8 hPa 0,0 l/m 2,0 km/h (1 Bft) 0,00 h 4,7 km/h (1 Bft)
10.11.2009 18:00 14,5 C 8,5 C 0,0 UV-I 0,0 C 59 % 89 % 0 % 1007,7 hPa 0,0 l/m 1,6 km/h (1 Bft) 0,00 h 3,7 km/h (1 Bft)
10.11.2009 19:00 14,5 C 8,4 C 0,0 UV-I 0,0 C 60 % 91 % 0 % 1007,7 hPa 0,0 l/m 2,0 km/h (1 Bft) 0,00 h 4,1 km/h (1 Bft)
10.11.2009 20:00 14,6 C 8,4 C 0,0 UV-I 0,0 C 60 % 91 % 0 % 1007,5 hPa 0,0 l/m 1,6 km/h (1 Bft) 0,00 h 4,7 km/h (1 Bft)
10.11.2009 21:00 14,6 C 8,4 C 0,0 UV-I 0,0 C 60 % 91 % 0 % 1007,7 hPa 0,0 l/m 1,7 km/h (1 Bft) 0,00 h 4,0 km/h (1 Bft)
10.11.2009 22:00 14,5 C 8,2 C 0,0 UV-I 0,0 C 59 % 89 % 0 % 1007,6 hPa 0,0 l/m 2,2 km/h (1 Bft) 0,00 h 3,7 km/h (1 Bft)
10.11.2009 23:00 14,3 C 8,0 C 0,0 UV-I 0,0 C 59 % 89 % 0 % 1007,6 hPa 0,0 l/m 3,2 km/h (1 Bft) 0,00 h 4,9 km/h (1 Bft)
11.11.2009 00:00 14,2 C 7,7 C 0,0 UV-I 0,0 C 58 % 89 % 0 % 1007,6 hPa 0,0 l/m 2,8 km/h (1 Bft) 0,00 h 5,3 km/h (1 Bft)
11.11.2009 01:00 14,0 C 7,1 C 0,0 UV-I 0,0 C 58 % 89 % 0 % 1007,4 hPa 0,0 l/m 2,7 km/h (1 Bft) 0,00 h 5,1 km/h (1 Bft)
11.11.2009 02:00 13,7 C 6,7 C 0,0 UV-I 0,0 C 58 % 90 % 0 % 1007,4 hPa 0,0 l/m 3,0 km/h (1 Bft) 0,00 h 6,3 km/h (2 Bft)
11.11.2009 03:00 13,6 C 6,5 C 0,0 UV-I 0,0 C 58 % 90 % 0 % 1007,1 hPa 0,0 l/m 2,5 km/h (1 Bft) 0,00 h 5,2 km/h (1 Bft)
11.11.2009 04:00 13,5 C 6,4 C 0,0 UV-I 0,0 C 58 % 91 % 0 % 1006,9 hPa 0,0 l/m 2,7 km/h (1 Bft) 0,00 h 5,9 km/h (2 Bft)
11.11.2009 05:00 13,4 C 6,5 C 0,0 UV-I 0,0 C 58 % 91 % 0 % 1006,9 hPa 0,0 l/m 2,0 km/h (1 Bft) 0,00 h 4,0 km/h (1 Bft)
11.11.2009 06:00 13,4 C 6,8 C 0,0 UV-I 0,0 C 59 % 91 % 0 % 1006,9 hPa 0,0 l/m 2,3 km/h (1 Bft) 0,00 h 4,6 km/h (1 Bft)
11.11.2009 07:00 13,2 C 6,8 C 0,0 UV-I 0,0 C 60 % 91 % 0 % 1007,0 hPa 0,0 l/m 2,3 km/h (1 Bft) 0,00 h 5,0 km/h (1 Bft)
11.11.2009 08:00 13,1 C 6,7 C 0,0 UV-I 0,0 C 60 % 92 % 0 % 1007,3 hPa 0,0 l/m 2,9 km/h (1 Bft) 0,00 h 5,3 km/h (1 Bft)
11.11.2009 09:00 13,2 C 7,1 C 0,0 UV-I 0,0 C 61 % 93 % 1 % 1007,6 hPa 0,0 l/m 2,6 km/h (1 Bft) 0,00 h 5,7 km/h (1 Bft)
11.11.2009 10:00 13,3 C 7,7 C 0,2 UV-I 0,1 C 62 % 92 % 3 % 1007,7 hPa 0,0 l/m 3,6 km/h (1 Bft) 0,00 h 6,7 km/h (2 Bft)
11.11.2009 11:00 13,4 C 8,2 C 0,2 UV-I 0,1 C 62 % 90 % 3 % 1007,7 hPa 0,0 l/m 3,0 km/h (1 Bft) 0,00 h 5,7 km/h (1 Bft)
11.11.2009 12:00 13,7 C 8,4 C 0,3 UV-I 0,0 C 62 % 90 % 0 % 1007,8 hPa 0,0 l/m 2,3 km/h (1 Bft) 0,00 h 4,6 km/h (1 Bft)
11.11.2009 13:00 14,0 C 8,9 C 0,9 UV-I 0,5 C 62 % 89 % 16 % 1007,9 hPa 0,0 l/m 2,7 km/h (1 Bft) 0,00 h 5,1 km/h (1 Bft)
11.11.2009 14:00 14,3 C 9,6 C 0,9 UV-I 1,4 C 60 % 85 % 40 % 1007,8 hPa 0,0 l/m 3,9 km/h (1 Bft) 0,40 h 7,4 km/h (2 Bft)
11.11.2009 15:00 14,6 C 10,0 C 0,2 UV-I 0,8 C 59 % 82 % 22 % 1007,9 hPa 0,0 l/m 3,5 km/h (1 Bft) 0,00 h 6,4 km/h (2 Bft)
11.11.2009 16:00 14,4 C 9,6 C 0,0 UV-I 0,0 C 58 % 82 % 0 % 1007,7 hPa 0,0 l/m 2,6 km/h (1 Bft) 0,00 h 4,8 km/h (1 Bft)
11.11.2009 17:00 14,2 C 8,8 C 0,0 UV-I 0,0 C 58 % 84 % 0 % 1007,7 hPa 0,0 l/m 1,0 km/h (0 Bft) 0,00 h 2,9 km/h (1 Bft)
11.11.2009 18:00 14,0 C 8,6 C 0,0 UV-I 0,0 C 59 % 86 % 0 % 1008,0 hPa 0,0 l/m 1,5 km/h (1 Bft) 0,00 h 4,0 km/h (1 Bft)
11.11.2009 19:00 13,9 C 8,5 C 0,0 UV-I 0,0 C 58 % 83 % 0 % 1007,9 hPa 0,0 l/m 3,6 km/h (1 Bft) 0,00 h 7,0 km/h (2 Bft)
11.11.2009 20:00 13,7 C 8,4 C 0,0 UV-I 0,0 C 57 % 82 % 0 % 1007,8 hPa 0,0 l/m 4,0 km/h (1 Bft) 0,00 h 6,3 km/h (2 Bft)
11.11.2009 21:00 13,6 C 8,0 C 0,0 UV-I 0,0 C 57 % 82 % 0 % 1007,9 hPa 0,0 l/m 3,3 km/h (1 Bft) 0,00 h 6,0 km/h (2 Bft)
11.11.2009 22:00 13,5 C 7,4 C 0,0 UV-I 0,0 C 56 % 83 % 0 % 1008,1 hPa 0,0 l/m 1,7 km/h (1 Bft) 0,00 h 4,5 km/h (1 Bft)
11.11.2009 23:00 13,3 C 6,6 C 0,0 UV-I 0,0 C 55 % 84 % 0 % 1007,8 hPa 0,0 l/m 0,4 km/h (0 Bft) 0,00 h 1,3 km/h (1 Bft)
12.11.2009 00:00 13,2 C 5,4 C 0,0 UV-I 0,0 C 55 % 85 % 0 % 1007,2 hPa 0,0 l/m 1,3 km/h (1 Bft) 0,00 h 3,4 km/h (1 Bft)
12.11.2009 01:00 13,2 C 4,3 C 0,0 UV-I 0,0 C 54 % 87 % 0 % 1007,0 hPa 0,0 l/m 1,0 km/h (0 Bft) 0,00 h 1,8 km/h (1 Bft)
12.11.2009 02:00 13,0 C 3,5 C 0,0 UV-I 0,0 C 53 % 88 % 0 % 1006,4 hPa 0,0 l/m 1,6 km/h (1 Bft) 0,00 h 4,6 km/h (1 Bft)
12.11.2009 03:00 12,8 C 3,3 C 0,0 UV-I 0,0 C 53 % 89 % 0 % 1005,8 hPa 0,0 l/m 0,8 km/h (0 Bft) 0,00 h 1,0 km/h (0 Bft)
12.11.2009 04:00 12,8 C 3,2 C 0,0 UV-I 0,0 C 54 % 91 % 0 % 1005,1 hPa 0,0 l/m 1,1 km/h (1 Bft) 0,00 h 3,4 km/h (1 Bft)
12.11.2009 05:00 12,8 C 3,4 C 0,0 UV-I 0,0 C 53 % 91 % 0 % 1004,5 hPa 0,0 l/m 2,6 km/h (1 Bft) 0,00 h 5,7 km/h (1 Bft)
12.11.2009 06:00 12,8 C 4,0 C 0,0 UV-I 0,0 C 53 % 91 % 0 % 1004,3 hPa 0,1 l/m 4,3 km/h (1 Bft) 0,00 h 9,3 km/h (2 Bft)
12.11.2009 07:00 12,7 C 4,3 C 0,0 UV-I 0,0 C 55 % 92 % 0 % 1004,0 hPa 1,9 l/m 4,1 km/h (1 Bft) 0,00 h 7,9 km/h (2 Bft)
12.11.2009 08:00 12,7 C 4,6 C 0,0 UV-I 0,0 C 57 % 94 % 0 % 1003,9 hPa 0,3 l/m 5,5 km/h (1 Bft) 0,00 h 10,8 km/h (2 Bft)
12.11.2009 09:00 12,6 C 4,9 C 0,0 UV-I 0,0 C 59 % 95 % 0 % 1004,0 hPa 0,7 l/m 5,1 km/h (1 Bft) 0,00 h 6,8 km/h (2 Bft)
12.11.2009 10:00 12,7 C 5,5 C 0,0 UV-I 0,0 C 60 % 95 % 0 % 1004,4 hPa 0,0 l/m 4,9 km/h (1 Bft) 0,00 h 7,5 km/h (2 Bft)
12.11.2009 11:00 13,0 C 6,4 C 0,3 UV-I 0,2 C 61 % 96 % 4 % 1004,7 hPa 0,0 l/m 5,1 km/h (1 Bft) 0,00 h 7,8 km/h (2 Bft)
12.11.2009 12:00 13,2 C 7,9 C 0,1 UV-I 0,7 C 62 % 96 % 19 % 1005,1 hPa 0,0 l/m 3,5 km/h (1 Bft) 0,00 h 6,4 km/h (2 Bft)
12.11.2009 13:00 13,6 C 9,6 C 0,6 UV-I 1,6 C 65 % 94 % 45 % 1005,6 hPa 0,0 l/m 4,6 km/h (1 Bft) 0,17 h 8,3 km/h (2 Bft)
12.11.2009 14:00 14,1 C 10,6 C 0,6 UV-I 0,9 C 65 % 90 % 25 % 1006,1 hPa 0,0 l/m 4,3 km/h (1 Bft) 0,00 h 8,2 km/h (2 Bft)
12.11.2009 15:00 14,3 C 11,0 C 0,3 UV-I 0,2 C 65 % 89 % 5 % 1006,5 hPa 0,0 l/m 4,7 km/h (1 Bft) 0,00 h 9,0 km/h (2 Bft)
12.11.2009 16:00 14,2 C 10,8 C 0,0 UV-I 0,0 C 65 % 89 % 0 % 1006,9 hPa 0,0 l/m 4,0 km/h (1 Bft) 0,00 h 6,1 km/h (2 Bft)
12.11.2009 17:00 14,0 C 10,5 C 0,0 UV-I 0,0 C 66 % 89 % 0 % 1007,3 hPa 0,0 l/m 3,6 km/h (1 Bft) 0,00 h 6,4 km/h (2 Bft)
12.11.2009 18:00 14,0 C 10,4 C 0,0 UV-I 0,0 C 66 % 88 % 0 % 1007,6 hPa 0,0 l/m 3,7 km/h (1 Bft) 0,00 h 8,2 km/h (2 Bft)
12.11.2009 19:00 14,0 C 9,9 C 0,0 UV-I 0,0 C 65 % 88 % 0 % 1007,9 hPa 0,0 l/m 2,5 km/h (1 Bft) 0,00 h 4,4 km/h (1 Bft)
12.11.2009 20:00 14,2 C 9,2 C 0,0 UV-I 0,0 C 65 % 89 % 0 % 1008,0 hPa 0,0 l/m 3,5 km/h (1 Bft) 0,00 h 6,3 km/h (2 Bft)
12.11.2009 21:00 14,0 C 8,5 C 0,0 UV-I 0,0 C 63 % 90 % 0 % 1007,7 hPa 0,0 l/m 2,6 km/h (1 Bft) 0,00 h 5,6 km/h (1 Bft)
12.11.2009 22:00 13,9 C 8,0 C 0,0 UV-I 0,0 C 63 % 91 % 0 % 1007,6 hPa 0,0 l/m 5,7 km/h (1 Bft) 0,00 h 9,4 km/h (2 Bft)
12.11.2009 23:00 13,8 C 7,9 C 0,0 UV-I 0,0 C 63 % 91 % 0 % 1007,2 hPa 0,0 l/m 5,3 km/h (1 Bft) 0,00 h 9,1 km/h (2 Bft)
13.11.2009 00:00 13,8 C 7,8 C 0,0 UV-I 0,0 C 63 % 92 % 0 % 1006,8 hPa 0,0 l/m 4,5 km/h (1 Bft) 0,00 h 7,7 km/h (2 Bft)
13.11.2009 01:00 13,8 C 7,7 C 0,0 UV-I 0,0 C 63 % 92 % 0 % 1006,5 hPa 0,0 l/m 4,4 km/h (1 Bft) 0,00 h 8,8 km/h (2 Bft)
13.11.2009 02:00 13,8 C 7,9 C 0,0 UV-I 0,0 C 63 % 93 % 0 % 1006,3 hPa 0,0 l/m 4,9 km/h (1 Bft) 0,00 h 8,5 km/h (2 Bft)
13.11.2009 03:00 13,9 C 8,0 C 0,0 UV-I 0,0 C 63 % 93 % 0 % 1006,2 hPa 0,0 l/m 5,0 km/h (1 Bft) 0,00 h 8,3 km/h (2 Bft)
13.11.2009 04:00 13,9 C 8,5 C 0,0 UV-I 0,0 C 64 % 94 % 0 % 1006,3 hPa 0,0 l/m 5,5 km/h (1 Bft) 0,00 h 9,2 km/h (2 Bft)
13.11.2009 05:00 14,0 C 8,9 C 0,0 UV-I 0,0 C 65 % 94 % 0 % 1006,2 hPa 0,2 l/m 4,1 km/h (1 Bft) 0,00 h 7,1 km/h (2 Bft)
13.11.2009 06:00 14,1 C 9,2 C 0,0 UV-I 0,0 C 66 % 94 % 0 % 1006,0 hPa 0,0 l/m 3,4 km/h (1 Bft) 0,00 h 6,3 km/h (2 Bft)
13.11.2009 07:00 14,2 C 9,6 C 0,0 UV-I 0,0 C 67 % 95 % 0 % 1006,3 hPa 0,7 l/m 3,0 km/h (1 Bft) 0,00 h 5,4 km/h (1 Bft)
13.11.2009 08:00 14,4 C 10,0 C 0,0 UV-I 0,0 C 68 % 95 % 0 % 1006,8 hPa 0,8 l/m 2,0 km/h (1 Bft) 0,00 h 3,6 km/h (1 Bft)
13.11.2009 09:00 14,6 C 10,7 C 0,0 UV-I 0,2 C 69 % 96 % 7 % 1007,0 hPa 0,1 l/m 2,8 km/h (1 Bft) 0,00 h 5,5 km/h (1 Bft)
13.11.2009 10:00 14,9 C 12,3 C 0,1 UV-I 0,4 C 71 % 95 % 10 % 1007,1 hPa 0,0 l/m 4,4 km/h (1 Bft) 0,00 h 8,9 km/h (2 Bft)
13.11.2009 11:00 15,2 C 13,7 C 0,3 UV-I 0,6 C 71 % 91 % 17 % 1007,2 hPa 0,0 l/m 5,2 km/h (1 Bft) 0,00 h 10,0 km/h (2 Bft)
13.11.2009 12:00 15,6 C 15,1 C 0,8 UV-I 0,7 C 70 % 82 % 20 % 1006,9 hPa 0,0 l/m 6,9 km/h (2 Bft) 0,00 h 11,7 km/h (2 Bft)
13.11.2009 13:00 16,1 C 16,1 C 1,0 UV-I 0,7 C 68 % 76 % 19 % 1006,6 hPa 0,0 l/m 7,1 km/h (2 Bft) 0,00 h 13,1 km/h (3 Bft)
13.11.2009 14:00 16,8 C 17,0 C 1,0 UV-I 1,2 C 66 % 71 % 33 % 1007,5 hPa 0,0 l/m 7,7 km/h (2 Bft) 0,17 h 13,3 km/h (3 Bft)
13.11.2009 15:00 16,8 C 17,1 C 0,2 UV-I 0,0 C 64 % 68 % 1 % 1006,9 hPa 0,0 l/m 6,5 km/h (2 Bft) 0,00 h 10,3 km/h (2 Bft)
13.11.2009 16:00 16,8 C 17,1 C 0,0 UV-I 0,0 C 63 % 66 % 0 % 1006,9 hPa 0,0 l/m 5,7 km/h (1 Bft) 0,00 h 10,4 km/h (2 Bft)
13.11.2009 17:00 16,7 C 16,6 C 0,0 UV-I 0,0 C 63 % 69 % 0 % 1006,8 hPa 0,0 l/m 6,6 km/h (2 Bft) 0,00 h 12,3 km/h (3 Bft)
13.11.2009 18:00 16,7 C 16,4 C 0,0 UV-I 0,0 C 63 % 68 % 0 % 1007,0 hPa 0,0 l/m 7,2 km/h (2 Bft) 0,00 h 13,5 km/h (3 Bft)
13.11.2009 19:00 16,6 C 15,8 C 0,0 UV-I 0,0 C 63 % 71 % 0 % 1007,5 hPa 0,0 l/m 5,8 km/h (2 Bft) 0,00 h 10,5 km/h (2 Bft)
13.11.2009 20:00 16,5 C 14,9 C 0,0 UV-I 0,0 C 64 % 75 % 0 % 1007,9 hPa 0,0 l/m 5,3 km/h (1 Bft) 0,00 h 9,8 km/h (2 Bft)
13.11.2009 21:00 16,4 C 13,7 C 0,0 UV-I 0,0 C 64 % 79 % 0 % 1008,1 hPa 0,0 l/m 5,1 km/h (1 Bft) 0,00 h 7,7 km/h (2 Bft)
13.11.2009 22:00 16,2 C 12,4 C 0,0 UV-I 0,0 C 65 % 84 % 0 % 1007,7 hPa 0,0 l/m 6,0 km/h (2 Bft) 0,00 h 9,2 km/h (2 Bft)
13.11.2009 23:00 16,0 C 12,0 C 0,0 UV-I 0,0 C 65 % 86 % 0 % 1007,1 hPa 0,0 l/m 5,6 km/h (1 Bft) 0,00 h 8,1 km/h (2 Bft)
14.11.2009 00:00 16,0 C 11,8 C 0,0 UV-I 0,0 C 66 % 87 % 0 % 1006,7 hPa 0,0 l/m 4,4 km/h (1 Bft) 0,00 h 7,2 km/h (2 Bft)
14.11.2009 01:00 16,0 C 11,7 C 0,0 UV-I 0,0 C 66 % 88 % 0 % 1006,2 hPa 0,0 l/m 4,7 km/h (1 Bft) 0,00 h 8,5 km/h (2 Bft)
14.11.2009 02:00 15,9 C 11,7 C 0,0 UV-I 0,0 C 66 % 88 % 0 % 1005,5 hPa 0,0 l/m 5,7 km/h (1 Bft) 0,00 h 11,2 km/h (2 Bft)
14.11.2009 03:00 15,8 C 12,0 C 0,0 UV-I 0,0 C 66 % 87 % 0 % 1004,5 hPa 0,0 l/m 5,7 km/h (1 Bft) 0,00 h 9,4 km/h (2 Bft)
14.11.2009 04:00 15,8 C 12,3 C 0,0 UV-I 0,0 C 66 % 87 % 0 % 1003,8 hPa 0,0 l/m 7,1 km/h (2 Bft) 0,00 h 11,4 km/h (2 Bft)
14.11.2009 05:00 15,8 C 12,3 C 0,0 UV-I 0,0 C 66 % 86 % 0 % 1003,2 hPa 0,0 l/m 9,0 km/h (2 Bft) 0,00 h 15,0 km/h (3 Bft)
14.11.2009 06:00 15,8 C 12,6 C 0,0 UV-I 0,0 C 66 % 85 % 0 % 1002,8 hPa 0,0 l/m 10,6 km/h (2 Bft) 0,00 h 17,9 km/h (3 Bft)
14.11.2009 07:00 16,0 C 12,8 C 0,0 UV-I 0,0 C 66 % 84 % 0 % 1002,6 hPa 0,0 l/m 7,6 km/h (2 Bft) 0,00 h 12,7 km/h (3 Bft)
14.11.2009 08:00 16,0 C 12,9 C 0,0 UV-I 0,1 C 66 % 84 % 2 % 1002,8 hPa 0,0 l/m 5,6 km/h (1 Bft) 0,00 h 9,8 km/h (2 Bft)
14.11.2009 09:00 16,2 C 13,5 C 0,0 UV-I 0,3 C 65 % 82 % 8 % 1002,8 hPa 0,0 l/m 7,4 km/h (2 Bft) 0,00 h 11,4 km/h (2 Bft)
14.11.2009 10:00 16,3 C 14,1 C 0,0 UV-I 0,3 C 65 % 79 % 10 % 1002,5 hPa 0,0 l/m 9,8 km/h (2 Bft) 0,00 h 15,7 km/h (3 Bft)
14.11.2009 11:00 16,5 C 14,4 C 0,0 UV-I 0,2 C 64 % 78 % 6 % 1003,1 hPa 2,1 l/m 8,3 km/h (2 Bft) 0,00 h 13,1 km/h (3 Bft)
14.11.2009 12:00 16,1 C 12,7 C 0,0 UV-I 0,0 C 67 % 86 % 0 % 1004,0 hPa 0,5 l/m 5,5 km/h (1 Bft) 0,00 h 9,4 km/h (2 Bft)
14.11.2009 13:00 16,0 C 12,4 C 0,2 UV-I 0,0 C 67 % 86 % 0 % 1003,4 hPa 0,0 l/m 4,5 km/h (1 Bft) 0,00 h 7,4 km/h (2 Bft)
14.11.2009 14:00 16,1 C 13,6 C 0,9 UV-I 1,9 C 65 % 77 % 50 % 1003,9 hPa 0,0 l/m 7,8 km/h (2 Bft) 0,43 h 14,6 km/h (3 Bft)
14.11.2009 15:00 16,9 C 14,4 C 0,5 UV-I 1,9 C 61 % 71 % 54 % 1004,5 hPa 0,0 l/m 6,7 km/h (2 Bft) 0,60 h 11,1 km/h (2 Bft)
14.11.2009 16:00 16,7 C 13,7 C 0,0 UV-I 0,0 C 59 % 72 % 0 % 1004,5 hPa 0,0 l/m 6,3 km/h (2 Bft) 0,00 h 10,1 km/h (2 Bft)
14.11.2009 17:00 16,3 C 12,7 C 0,0 UV-I 0,0 C 59 % 74 % 0 % 1004,7 hPa 0,0 l/m 8,1 km/h (2 Bft) 0,00 h 13,3 km/h (3 Bft)
14.11.2009 18:00 16,0 C 12,4 C 0,0 UV-I 0,0 C 59 % 75 % 0 % 1004,5 hPa 0,0 l/m 8,6 km/h (2 Bft) 0,00 h 13,8 km/h (3 Bft)
14.11.2009 19:00 16,0 C 12,3 C 0,0 UV-I 0,0 C 60 % 76 % 0 % 1004,7 hPa 0,0 l/m 8,3 km/h (2 Bft) 0,00 h 12,6 km/h (3 Bft)
14.11.2009 20:00 15,9 C 12,7 C 0,0 UV-I 0,0 C 60 % 77 % 0 % 1005,1 hPa 0,0 l/m 7,6 km/h (2 Bft) 0,00 h 12,3 km/h (3 Bft)
14.11.2009 21:00 15,9 C 13,1 C 0,0 UV-I 0,0 C 61 % 75 % 0 % 1005,7 hPa 0,0 l/m 7,2 km/h (2 Bft) 0,00 h 14,4 km/h (3 Bft)
14.11.2009 22:00 16,0 C 13,7 C 0,0 UV-I 0,0 C 60 % 72 % 0 % 1006,3 hPa 0,0 l/m 9,0 km/h (2 Bft) 0,00 h 15,8 km/h (3 Bft)
14.11.2009 23:00 16,0 C 13,8 C 0,0 UV-I 0,0 C 60 % 72 % 0 % 1006,9 hPa 0,0 l/m 8,6 km/h (2 Bft) 0,00 h 14,4 km/h (3 Bft)
15.11.2009 00:00 15,9 C 13,6 C 0,0 UV-I 0,0 C 59 % 71 % 0 % 1007,5 hPa 0,0 l/m 9,9 km/h (2 Bft) 0,00 h 17,4 km/h (3 Bft)
15.11.2009 01:00 15,9 C 13,3 C 0,0 UV-I 0,0 C 59 % 72 % 0 % 1008,3 hPa 0,0 l/m 8,4 km/h (2 Bft) 0,00 h 15,1 km/h (3 Bft)
15.11.2009 02:00 15,8 C 11,9 C 0,0 UV-I 0,0 C 61 % 82 % 0 % 1009,3 hPa 1,2 l/m 4,5 km/h (1 Bft) 0,00 h 7,5 km/h (2 Bft)
15.11.2009 03:00 15,7 C 11,6 C 0,0 UV-I 0,0 C 62 % 83 % 0 % 1009,8 hPa 0,1 l/m 4,2 km/h (1 Bft) 0,00 h 6,8 km/h (2 Bft)
15.11.2009 04:00 15,9 C 11,0 C 0,0 UV-I 0,0 C 64 % 87 % 0 % 1010,1 hPa 0,0 l/m 0,6 km/h (0 Bft) 0,00 h 1,5 km/h (1 Bft)
15.11.2009 05:00 16,0 C 10,7 C 0,0 UV-I 0,0 C 63 % 87 % 0 % 1010,4 hPa 0,0 l/m 1,1 km/h (1 Bft) 0,00 h 3,1 km/h (1 Bft)
15.11.2009 06:00 15,9 C 10,2 C 0,0 UV-I 0,0 C 62 % 87 % 0 % 1010,4 hPa 0,0 l/m 2,8 km/h (1 Bft) 0,00 h 5,6 km/h (1 Bft)
15.11.2009 07:00 15,7 C 10,1 C 0,0 UV-I 0,0 C 62 % 87 % 0 % 1010,7 hPa 0,1 l/m 3,1 km/h (1 Bft) 0,00 h 5,8 km/h (2 Bft)
15.11.2009 08:00 15,6 C 10,4 C 0,0 UV-I 0,0 C 62 % 88 % 0 % 1010,9 hPa 0,0 l/m 6,1 km/h (2 Bft) 0,00 h 8,1 km/h (2 Bft)
15.11.2009 09:00 15,8 C 11,2 C 0,4 UV-I 0,4 C 63 % 86 % 12 % 1010,9 hPa 0,0 l/m 4,8 km/h (1 Bft) 0,00 h 8,6 km/h (2 Bft)
15.11.2009 10:00 15,8 C 11,7 C 0,3 UV-I 0,1 C 63 % 85 % 3 % 1011,1 hPa 0,5 l/m 4,4 km/h (1 Bft) 0,00 h 7,2 km/h (2 Bft)
15.11.2009 11:00 15,7 C 11,3 C 0,1 UV-I 0,0 C 65 % 88 % 0 % 1011,2 hPa 0,5 l/m 2,9 km/h (1 Bft) 0,00 h 6,2 km/h (2 Bft)
15.11.2009 12:00 15,9 C 11,0 C 0,1 UV-I 0,0 C 65 % 89 % 0 % 1010,5 hPa 0,1 l/m 3,1 km/h (1 Bft) 0,00 h 5,9 km/h (2 Bft)
15.11.2009 13:00 16,0 C 11,1 C 0,2 UV-I 0,0 C 65 % 90 % 0 % 1009,6 hPa 0,1 l/m 2,7 km/h (1 Bft) 0,00 h 5,6 km/h (1 Bft)
15.11.2009 14:00 15,9 C 11,1 C 0,1 UV-I 0,0 C 65 % 90 % 0 % 1009,2 hPa 0,4 l/m 4,5 km/h (1 Bft) 0,00 h 7,3 km/h (2 Bft)
15.11.2009 15:00 15,9 C 11,2 C 0,0 UV-I 0,0 C 65 % 89 % 0 % 1009,2 hPa 0,8 l/m 2,2 km/h (1 Bft) 0,00 h 5,1 km/h (1 Bft)
15.11.2009 16:00 15,8 C 11,1 C 0,0 UV-I 0,0 C 66 % 90 % 0 % 1009,1 hPa 0,0 l/m 2,2 km/h (1 Bft) 0,00 h 5,9 km/h (2 Bft)
15.11.2009 17:00 15,6 C 11,2 C 0,0 UV-I 0,0 C 65 % 87 % 0 % 1009,3 hPa 0,0 l/m 2,8 km/h (1 Bft) 0,00 h 4,6 km/h (1 Bft)
15.11.2009 18:00 15,6 C 10,6 C 0,0 UV-I 0,0 C 64 % 87 % 0 % 1009,3 hPa 0,0 l/m 1,1 km/h (1 Bft) 0,00 h 3,5 km/h (1 Bft)
15.11.2009 19:00 15,6 C 9,6 C 0,0 UV-I 0,0 C 64 % 89 % 0 % 1009,5 hPa 0,0 l/m 0,7 km/h (0 Bft) 0,00 h 2,5 km/h (1 Bft)
15.11.2009 20:00 15,4 C 9,5 C 0,0 UV-I 0,0 C 64 % 90 % 0 % 1009,6 hPa 0,0 l/m 0,8 km/h (0 Bft) 0,00 h 2,2 km/h (1 Bft)
15.11.2009 21:00 15,4 C 9,6 C 0,0 UV-I 0,0 C 63 % 90 % 0 % 1009,7 hPa 0,0 l/m 1,6 km/h (1 Bft) 0,00 h 3,4 km/h (1 Bft)
15.11.2009 22:00 15,2 C 9,3 C 0,0 UV-I 0,0 C 63 % 89 % 0 % 1009,8 hPa 0,0 l/m 0,7 km/h (0 Bft) 0,00 h 1,8 km/h (1 Bft)
15.11.2009 23:00 15,2 C 8,9 C 0,0 UV-I 0,0 C 62 % 90 % 0 % 1009,9 hPa 0,0 l/m 0,4 km/h (0 Bft) 0,00 h 0,7 km/h (0 Bft)
Min-Datum _ 12.11.09 12.11.09 09.11.09 09.11.09 12.11.09 13.11.09 09.11.09 14.11.09 - 09.11.09 - 09.11.09
_ Min-Zeit 07:20 03:42 00:00 00:00 01:58 16:00 00:00 07:34 - 18:16 - 03:22
Minimum _ 12,6 C 3,2 C 0,0 UV-I 0,0 C 53 % 66 % 0 % 1002,4 hPa - 0,0 km/h (0 Bft) - 0,0 km/h (0 Bft)
Max-Datum _ 14.11.09 13.11.09 10.11.09 14.11.09 13.11.09 12.11.09 12.11.09 09.11.09 14.11.09 14.11.09 11.11.09 15.11.09
_ Max-Zeit 15:28 15:46 12:40 14:42 10:26 11:06 13:40 11:14 11:44 06:52 14:34 00:02
Maximum _ 17,0 C 17,3 C 2,1 UV-I 4,1 C 71 % 96 % 100 % 1012,7 hPa 2,1 l/m 12,5 km/h
O-NO (3 Bft)
0,03 h 45,5 km/h
NO (6 Bft)
Durchschnitt _ 15,0 C 9,4 C 0,1 UV-I 0,1 C 61 % 87 % 3 % 1007,9 hPa #10,9 l/m 3,9 km/h (1 Bft) #1:46 h 6,9 km/h (2 Bft)
© 2012 W. Hausmann